createdAt,value
2023-04-26T00:02:00.803Z,99813.34
2023-04-26T00:04:29.533Z,99811.66
2023-04-26T00:06:57.171Z,99824.50
2023-04-26T00:09:24.270Z,99833.91
2023-04-26T00:11:51.479Z,99818.50
2023-04-26T00:14:18.699Z,99814.22
2023-04-26T00:16:45.754Z,99826.22
2023-04-26T00:19:13.980Z,99817.63
2023-04-26T00:21:41.130Z,99820.19
2023-04-26T00:24:09.074Z,99827.06
2023-04-26T00:26:36.292Z,99822.78
2023-04-26T00:29:04.859Z,99826.19
2023-04-26T00:31:32.046Z,99821.09
2023-04-26T00:33:59.212Z,99825.38
2023-04-26T00:36:26.484Z,99823.63
2023-04-26T00:38:53.970Z,99837.34
2023-04-26T00:41:22.163Z,99827.06
2023-04-26T00:43:49.437Z,99833.91
2023-04-26T00:46:16.556Z,99830.50
2023-04-26T00:48:45.155Z,99826.19
2023-04-26T00:51:13.243Z,99823.63
2023-04-26T00:53:41.497Z,99815.09
2023-04-26T00:56:10.549Z,99815.94
2023-04-26T00:58:38.089Z,99828.78
2023-04-26T01:01:05.543Z,99824.50
2023-04-26T01:03:32.886Z,99821.94
2023-04-26T01:06:01.217Z,99829.63
2023-04-26T01:08:28.493Z,99830.50
2023-04-26T01:10:59.261Z,99819.38
2023-04-26T01:13:26.965Z,99821.91
2023-04-26T01:15:56.025Z,99820.19
2023-04-26T01:18:23.168Z,99824.50
2023-04-26T01:20:52.214Z,99828.78
2023-04-26T01:23:19.382Z,99816.75
2023-04-26T01:25:46.721Z,99825.31
2023-04-26T01:28:13.824Z,99832.22
2023-04-26T01:30:41.110Z,99821.91
2023-04-26T01:33:08.289Z,99821.91
2023-04-26T01:35:35.725Z,99830.47
2023-04-26T01:38:04.490Z,99821.91
2023-04-26T01:40:31.541Z,99824.50
2023-04-26T01:42:58.675Z,99827.06
2023-04-26T01:45:30.974Z,99828.75
2023-04-26T01:48:16.856Z,99829.63
2023-04-26T01:50:43.998Z,99826.19
2023-04-26T01:53:13.833Z,99837.34
2023-04-26T01:55:41.888Z,99816.75
2023-04-26T01:58:09.787Z,99827.06
2023-04-26T02:00:37.664Z,99827.06
2023-04-26T02:03:04.815Z,99833.06
2023-04-26T02:05:31.982Z,99833.91
2023-04-26T02:07:59.036Z,99832.19
2023-04-26T02:10:26.178Z,99827.06
2023-04-26T02:12:53.181Z,99830.47
2023-04-26T02:15:20.607Z,99830.47
2023-04-26T02:17:47.578Z,99843.34
2023-04-26T02:20:14.914Z,99839.06
2023-04-26T02:22:41.943Z,99839.91
2023-04-26T02:25:09.160Z,99835.63
2023-04-26T02:27:36.293Z,99836.47
2023-04-26T02:30:04.134Z,99839.91
2023-04-26T02:32:31.267Z,99835.63
2023-04-26T02:34:58.627Z,99833.91
2023-04-26T02:37:25.923Z,99834.75
2023-04-26T02:39:53.248Z,99838.16
2023-04-26T02:42:20.494Z,99849.28
2023-04-26T02:44:47.686Z,99844.16
2023-04-26T02:47:14.845Z,99841.59
2023-04-26T02:49:42.150Z,99847.59
2023-04-26T02:52:09.904Z,99842.41
2023-04-26T02:54:37.943Z,99831.28
2023-04-26T02:57:05.261Z,99836.44
2023-04-26T02:59:32.667Z,99840.72
2023-04-26T03:01:59.994Z,99839.81
2023-04-26T03:04:27.879Z,99832.06
2023-04-26T03:06:54.885Z,99831.22
2023-04-26T03:09:22.425Z,99835.47
2023-04-26T03:11:50.969Z,99832.00
2023-04-26T03:14:18.206Z,99835.47
2023-04-26T03:16:46.148Z,99833.72
2023-04-26T03:19:13.240Z,99844.00
2023-04-26T03:21:41.181Z,99855.94
2023-04-26T03:24:08.359Z,99842.25
2023-04-26T03:26:35.448Z,99851.66
2023-04-26T03:29:03.366Z,99855.91
2023-04-26T03:31:30.451Z,99860.19
2023-04-26T03:33:57.557Z,99852.47
2023-04-26T03:36:24.736Z,99859.28
2023-04-26T03:38:52.074Z,99861.84
2023-04-26T03:41:20.738Z,99865.19
2023-04-26T03:43:49.064Z,99866.09
2023-04-26T03:46:17.746Z,99872.97
2023-04-26T03:48:48.518Z,99875.53
2023-04-26T03:51:15.565Z,99878.06
2023-04-26T03:53:42.645Z,99883.16
2023-04-26T03:56:09.724Z,99883.19
2023-04-26T03:58:37.290Z,99884.06
2023-04-26T04:01:05.097Z,99885.78
2023-04-26T04:03:32.496Z,99884.06
2023-04-26T04:05:59.784Z,99883.16
2023-04-26T04:08:26.922Z,99884.88
2023-04-26T04:10:54.036Z,99887.44
2023-04-26T04:13:21.139Z,99891.72
2023-04-26T04:15:48.504Z,99884.91
2023-04-26T04:18:15.767Z,99895.16
2023-04-26T04:20:42.825Z,99893.47
2023-04-26T04:23:10.253Z,99896.91
2023-04-26T04:25:39.680Z,99895.22
2023-04-26T04:28:09.437Z,99893.50
2023-04-26T04:30:36.973Z,99899.53
2023-04-26T04:33:05.581Z,99895.22
2023-04-26T04:35:34.309Z,99904.63
2023-04-26T04:38:04.561Z,99904.66
2023-04-26T04:40:32.566Z,99900.38
2023-04-26T04:43:01.165Z,99902.94
2023-04-26T04:45:29.852Z,99900.38
2023-04-26T04:47:58.711Z,99909.00
2023-04-26T04:50:26.874Z,99901.31
2023-04-26T04:52:55.959Z,99903.03
2023-04-26T04:55:23.038Z,99912.44
2023-04-26T04:57:50.156Z,99905.59
2023-04-26T05:00:17.697Z,99905.66
2023-04-26T05:02:52.223Z,99909.09
2023-04-26T05:05:20.136Z,99909.97
2023-04-26T05:07:47.496Z,99916.81
2023-04-26T05:10:15.867Z,99909.97
2023-04-26T05:12:42.929Z,99920.22
2023-04-26T05:15:10.750Z,99913.34
2023-04-26T05:17:38.040Z,99921.06
2023-04-26T05:20:17.364Z,99926.22
2023-04-26T05:22:44.646Z,99926.25
2023-04-26T05:25:13.735Z,99926.25
2023-04-26T05:27:41.572Z,99933.13
2023-04-26T05:30:27.567Z,99930.59
2023-04-26T05:33:04.795Z,99940.00
2023-04-26T05:35:47.177Z,99938.25
2023-04-26T05:38:15.352Z,99934.78
2023-04-26T05:40:42.449Z,99946.75
2023-04-26T05:43:10.847Z,99946.84
2023-04-26T05:45:39.363Z,99944.28
2023-04-26T05:48:07.095Z,99949.44
2023-04-26T05:50:34.155Z,99949.47
2023-04-26T05:53:01.580Z,99952.06
2023-04-26T05:55:29.682Z,99950.31
2023-04-26T05:57:57.137Z,99952.06
2023-04-26T06:00:24.707Z,99958.06
2023-04-26T06:02:52.230Z,99958.91
2023-04-26T06:05:19.623Z,99972.63
2023-04-26T06:07:47.653Z,99961.50
2023-04-26T06:10:14.825Z,99964.09
2023-04-26T06:12:43.288Z,99959.81
2023-04-26T06:15:11.608Z,99966.72
2023-04-26T06:17:41.307Z,99962.41
2023-04-26T06:20:10.505Z,99960.72
2023-04-26T06:22:38.363Z,99952.19
2023-04-26T06:25:06.966Z,99948.75
2023-04-26T06:27:36.299Z,99953.84
2023-04-26T06:30:03.889Z,99940.16
2023-04-26T06:32:32.354Z,99955.53
2023-04-26T06:34:59.651Z,99948.66
2023-04-26T06:37:26.827Z,99942.69
2023-04-26T06:39:54.897Z,99946.97
2023-04-26T06:42:22.626Z,99955.56
2023-04-26T06:45:06.847Z,99955.53
2023-04-26T06:47:36.764Z,99960.69
2023-04-26T06:50:05.138Z,99965.84
2023-04-26T06:52:32.322Z,99963.28
2023-04-26T06:55:03.544Z,99968.41
2023-04-26T06:57:31.013Z,99962.41
2023-04-26T06:59:58.434Z,99970.09
2023-04-26T07:02:25.825Z,99967.50
2023-04-26T07:04:53.378Z,99970.88
2023-04-26T07:07:20.980Z,99963.97
2023-04-26T07:09:48.050Z,99962.22
2023-04-26T07:12:15.133Z,99962.09
2023-04-26T07:14:43.557Z,99967.25
2023-04-26T07:17:11.252Z,99963.75
2023-04-26T07:19:38.876Z,99970.53
2023-04-26T07:22:06.302Z,99971.28
2023-04-26T07:24:33.638Z,99981.63
2023-04-26T07:27:02.275Z,99972.97
2023-04-26T07:29:29.444Z,99972.03
2023-04-26T07:31:57.463Z,99976.25
2023-04-26T07:34:24.949Z,99971.94
2023-04-26T07:36:52.083Z,99967.56
2023-04-26T07:39:19.310Z,99975.16
2023-04-26T07:41:46.480Z,99968.25
2023-04-26T07:44:13.551Z,99978.66
2023-04-26T07:46:40.607Z,99968.25
2023-04-26T07:49:07.724Z,99973.16
2023-04-26T07:51:37.374Z,99983.66
2023-04-26T07:54:04.527Z,99974.97
2023-04-26T07:56:31.706Z,99975.94
2023-04-26T07:58:58.989Z,99989.19
2023-04-26T08:01:26.303Z,99999.38
2023-04-26T08:03:54.954Z,99993.22
2023-04-26T08:06:22.838Z,99999.41
2023-04-26T08:08:51.114Z,100000.44
2023-04-26T08:11:18.540Z,99997.81
2023-04-26T08:13:45.924Z,100009.88
2023-04-26T08:16:13.220Z,100006.59
2023-04-26T08:18:40.496Z,100001.19
2023-04-26T08:21:07.917Z,100006.31
2023-04-26T08:23:36.721Z,100011.56
2023-04-26T08:26:04.337Z,100002.09
2023-04-26T08:28:31.692Z,100009.50
2023-04-26T08:30:58.933Z,100002.44
2023-04-26T08:33:26.359Z,99999.16
2023-04-26T08:35:53.560Z,100007.63
2023-04-26T08:38:22.925Z,100001.41
2023-04-26T08:40:51.968Z,100003.59
2023-04-26T08:43:19.077Z,100000.00
2023-04-26T08:45:47.362Z,100006.69
2023-04-26T08:48:18.410Z,100008.22
2023-04-26T08:50:48.912Z,99997.81
2023-04-26T08:53:21.742Z,100000.00
2023-04-26T08:55:50.188Z,100005.81
2023-04-26T08:58:21.786Z,100008.06
2023-04-26T09:00:50.617Z,100007.78
2023-04-26T09:03:18.285Z,100015.13
2023-04-26T09:05:46.102Z,100013.59
2023-04-26T09:08:17.711Z,100019.59
2023-04-26T09:10:45.212Z,100023.19
2023-04-26T09:13:12.663Z,100016.47
2023-04-26T09:15:40.399Z,100014.69
2023-04-26T09:18:22.050Z,100016.31
2023-04-26T09:21:09.539Z,100011.88
2023-04-26T09:23:36.874Z,100009.03
2023-04-26T09:26:21.122Z,100017.56
2023-04-26T09:28:48.779Z,100015.13
2023-04-26T09:31:37.635Z,100019.56
2023-04-26T09:34:05.124Z,100023.13
2023-04-26T09:36:32.508Z,100017.88
2023-04-26T09:39:01.222Z,100024.22
2023-04-26T09:41:47.441Z,100008.63
2023-04-26T09:44:24.801Z,100025.44
2023-04-26T09:47:06.886Z,100019.59
2023-04-26T09:49:44.861Z,100026.00
2023-04-26T09:52:12.046Z,100029.38
2023-04-26T09:54:44.961Z,100018.47
2023-04-26T09:57:14.043Z,100021.22
2023-04-26T09:59:46.345Z,100024.81
2023-04-26T10:02:17.418Z,100021.22
2023-04-26T10:04:47.260Z,100018.56
2023-04-26T10:07:16.270Z,100009.00
2023-04-26T10:09:44.100Z,100024.56
2023-04-26T10:12:12.923Z,100016.03
2023-04-26T10:14:40.404Z,100018.09
2023-04-26T10:17:07.795Z,100044.28
2023-04-26T10:19:37.161Z,100040.50
2023-04-26T10:22:08.549Z,100042.13
2023-04-26T10:24:37.185Z,100044.94
2023-04-26T10:27:04.933Z,100058.13
2023-04-26T10:29:54.861Z,100053.25
2023-04-26T10:32:23.201Z,100055.94
2023-04-26T10:35:13.539Z,100067.19
2023-04-26T10:38:01.215Z,100056.28
2023-04-26T10:40:38.962Z,100065.00
2023-04-26T10:43:19.748Z,100076.28
2023-04-26T10:45:48.181Z,100067.66
2023-04-26T10:48:18.053Z,100074.16
2023-04-26T10:51:08.025Z,100061.78
2023-04-26T10:53:35.105Z,100077.38
2023-04-26T10:56:02.325Z,100082.75
2023-04-26T10:58:31.833Z,100081.13
2023-04-26T11:01:19.277Z,100070.97
2023-04-26T11:03:59.331Z,100079.16
2023-04-26T11:06:27.140Z,100076.75
2023-04-26T11:08:55.263Z,100076.88
2023-04-26T11:11:27.269Z,100058.53
2023-04-26T11:13:54.466Z,100070.75
2023-04-26T11:16:21.820Z,100076.44
2023-04-26T11:18:49.135Z,100076.97
2023-04-26T11:21:19.121Z,100085.97
2023-04-26T11:23:56.103Z,100089.66
2023-04-26T11:26:25.067Z,100089.75
2023-04-26T11:28:52.479Z,100084.66
2023-04-26T11:31:20.149Z,100077.66
2023-04-26T11:33:49.202Z,100080.84
2023-04-26T11:36:17.839Z,100080.16
2023-04-26T11:38:45.015Z,100081.22
2023-04-26T11:41:12.136Z,100079.31
2023-04-26T11:43:40.054Z,100074.47
2023-04-26T11:46:10.156Z,100078.00
2023-04-26T11:48:38.791Z,100084.81
2023-04-26T11:51:08.462Z,100079.63
2023-04-26T11:53:45.780Z,100088.50
2023-04-26T11:56:23.248Z,100095.44
2023-04-26T11:58:52.177Z,100088.25
2023-04-26T12:01:23.918Z,100084.38
2023-04-26T12:03:53.153Z,100079.06
2023-04-26T12:06:25.987Z,100091.50
2023-04-26T12:08:53.434Z,100095.28
2023-04-26T12:11:21.365Z,100091.75
2023-04-26T12:13:48.820Z,100089.94
2023-04-26T12:16:25.607Z,100096.28
2023-04-26T12:18:55.501Z,100107.88
2023-04-26T12:21:24.646Z,100096.91
2023-04-26T12:23:52.055Z,100098.69
2023-04-26T12:26:20.636Z,100103.72
2023-04-26T12:28:47.867Z,100106.09
2023-04-26T12:31:15.081Z,100113.00
2023-04-26T12:33:42.505Z,100102.75
2023-04-26T12:36:11.608Z,100108.00
2023-04-26T12:38:39.785Z,100103.56
2023-04-26T12:41:07.352Z,100107.50
2023-04-26T12:43:34.741Z,100102.16
2023-04-26T12:46:01.982Z,100107.41
2023-04-26T12:48:29.241Z,100111.06
2023-04-26T12:50:56.938Z,100109.59
2023-04-26T12:53:24.053Z,100109.72
2023-04-26T12:55:51.148Z,100101.19
2023-04-26T12:58:18.306Z,100112.44
2023-04-26T13:00:45.610Z,100110.75
2023-04-26T13:03:14.938Z,100111.53
2023-04-26T13:05:42.315Z,100111.41
2023-04-26T13:08:09.492Z,100111.31
2023-04-26T13:10:36.626Z,100107.94
2023-04-26T13:13:03.836Z,100120.97
2023-04-26T13:15:31.037Z,100116.63
2023-04-26T13:17:58.265Z,100116.44
2023-04-26T13:20:26.741Z,100110.94
2023-04-26T13:22:55.767Z,100114.91
2023-04-26T13:25:23.525Z,100125.88
2023-04-26T13:27:53.820Z,100121.44
2023-04-26T13:30:20.951Z,100114.56
2023-04-26T13:32:48.257Z,100122.53
2023-04-26T13:35:15.403Z,100119.53
2023-04-26T13:37:42.863Z,100119.84
2023-04-26T13:40:11.493Z,100124.22
2023-04-26T13:42:39.695Z,100126.03
2023-04-26T13:45:10.318Z,100126.94
2023-04-26T13:47:37.432Z,100130.59
2023-04-26T13:50:04.919Z,100139.38
2023-04-26T13:52:32.046Z,100141.22
2023-04-26T13:54:59.227Z,100149.09
2023-04-26T13:57:26.323Z,100142.25
2023-04-26T13:59:53.490Z,100151.75
2023-04-26T14:02:21.639Z,100158.66
2023-04-26T14:04:49.294Z,100154.28
2023-04-26T14:07:17.253Z,100148.16
2023-04-26T14:09:44.303Z,100149.78
2023-04-26T14:12:11.643Z,100142.00
2023-04-26T14:14:38.740Z,100138.66
2023-04-26T14:17:05.784Z,100154.13
2023-04-26T14:19:32.819Z,100142.06
2023-04-26T14:21:59.936Z,100144.56
2023-04-26T14:24:26.984Z,100146.34
2023-04-26T14:26:54.149Z,100143.06
2023-04-26T14:29:21.414Z,100145.66
2023-04-26T14:31:48.551Z,100149.84
2023-04-26T14:34:15.780Z,100130.84
2023-04-26T14:36:42.976Z,100142.91
2023-04-26T14:39:10.044Z,100151.53
2023-04-26T14:41:37.637Z,100146.34
2023-04-26T14:44:04.863Z,100153.25
2023-04-26T14:46:31.998Z,100162.75
2023-04-26T14:48:59.340Z,100157.66
2023-04-26T14:51:27.592Z,100162.81
2023-04-26T14:53:54.770Z,100167.09
2023-04-26T14:56:22.438Z,100161.91
2023-04-26T14:58:49.772Z,100155.69
2023-04-26T15:01:17.488Z,100154.63
2023-04-26T15:03:45.009Z,100158.88
2023-04-26T15:06:12.329Z,100163.25
2023-04-26T15:08:39.631Z,100169.34
2023-04-26T15:11:06.773Z,100164.94
2023-04-26T15:13:33.957Z,100156.25
2023-04-26T15:16:07.569Z,100168.16
2023-04-26T15:18:35.239Z,100169.81
2023-04-26T15:21:02.423Z,100160.25
2023-04-26T15:23:29.500Z,100174.13
2023-04-26T15:26:02.060Z,100166.50
2023-04-26T15:28:29.446Z,100178.69
2023-04-26T15:31:08.293Z,100173.72
2023-04-26T15:33:36.526Z,100170.34
2023-04-26T15:36:03.921Z,100175.53
2023-04-26T15:38:30.970Z,100172.03
2023-04-26T15:40:58.111Z,100184.09
2023-04-26T15:43:25.546Z,100177.16
2023-04-26T15:45:53.221Z,100192.72
2023-04-26T15:48:20.367Z,100192.75
2023-04-26T15:50:47.666Z,100185.00
2023-04-26T15:53:14.808Z,100187.50
2023-04-26T15:55:42.070Z,100190.09
2023-04-26T15:58:09.148Z,100173.75
2023-04-26T16:00:36.740Z,100185.03
2023-04-26T16:03:04.199Z,100199.75
2023-04-26T16:05:32.002Z,100186.94
2023-04-26T16:08:03.968Z,100198.13
2023-04-26T16:10:31.188Z,100199.91
2023-04-26T16:12:59.084Z,100195.63
2023-04-26T16:15:26.573Z,100206.00
2023-04-26T16:17:53.708Z,100197.44
2023-04-26T16:20:21.530Z,100211.19
2023-04-26T16:22:50.052Z,100202.63
2023-04-26T16:25:17.436Z,100210.38
2023-04-26T16:27:44.828Z,100212.13
2023-04-26T16:30:12.444Z,100217.31
2023-04-26T16:32:39.806Z,100224.22
2023-04-26T16:35:09.073Z,100217.34
2023-04-26T16:37:39.404Z,100220.81
2023-04-26T16:40:08.108Z,100222.53
2023-04-26T16:42:35.382Z,100234.59
2023-04-26T16:45:02.482Z,100232.88
2023-04-26T16:47:29.829Z,100232.91
2023-04-26T16:49:57.487Z,100234.66
2023-04-26T16:52:24.534Z,100239.84
2023-04-26T16:54:51.654Z,100238.13
2023-04-26T16:57:19.121Z,100243.31
2023-04-26T16:59:46.559Z,100241.56
2023-04-26T17:02:14.180Z,100245.88
2023-04-26T17:04:42.204Z,100244.19
2023-04-26T17:07:09.737Z,100242.47
2023-04-26T17:09:38.521Z,100250.22
2023-04-26T17:12:07.682Z,100251.09
2023-04-26T17:14:35.089Z,100253.66
2023-04-26T17:17:02.263Z,100262.28
2023-04-26T17:19:29.664Z,100261.41
2023-04-26T17:21:56.866Z,100264.84
2023-04-26T17:24:24.030Z,100267.47
2023-04-26T17:26:51.853Z,100260.59
2023-04-26T17:29:18.993Z,100260.63
2023-04-26T17:31:46.312Z,100264.13
2023-04-26T17:34:13.405Z,100276.19
2023-04-26T17:36:40.632Z,100277.94
2023-04-26T17:39:08.281Z,100277.97
2023-04-26T17:41:35.361Z,100283.19
2023-04-26T17:44:02.446Z,100279.72
2023-04-26T17:46:29.539Z,100276.31
2023-04-26T17:48:56.736Z,100288.34
2023-04-26T17:51:23.985Z,100285.75
2023-04-26T17:53:51.101Z,100285.75
2023-04-26T17:56:19.017Z,100286.59
2023-04-26T17:58:46.097Z,100288.31
2023-04-26T18:01:13.807Z,100294.38
2023-04-26T18:03:41.429Z,100287.50
2023-04-26T18:06:08.781Z,100298.69
2023-04-26T18:08:36.815Z,100290.09
2023-04-26T18:11:04.042Z,100301.25
2023-04-26T18:13:31.182Z,100295.25
2023-04-26T18:15:58.492Z,100298.72
2023-04-26T18:18:27.767Z,100307.31
2023-04-26T18:20:55.291Z,100318.53
2023-04-26T18:23:22.363Z,100319.41
2023-04-26T18:25:50.722Z,100310.84
2023-04-26T18:28:17.920Z,100325.47
2023-04-26T18:30:45.036Z,100326.34
2023-04-26T18:33:12.352Z,100321.19
2023-04-26T18:35:39.580Z,100326.34
2023-04-26T18:38:06.840Z,100328.06
2023-04-26T18:40:34.176Z,100331.50
2023-04-26T18:43:01.352Z,100333.25
2023-04-26T18:45:28.420Z,100326.38
2023-04-26T18:47:55.664Z,100330.69
2023-04-26T18:50:22.802Z,100331.53
2023-04-26T18:52:50.011Z,100334.09
2023-04-26T18:55:17.497Z,100341.84
2023-04-26T18:57:44.704Z,100345.31
2023-04-26T19:00:12.502Z,100343.56
2023-04-26T19:02:42.849Z,100336.66
2023-04-26T19:05:10.624Z,100342.66
2023-04-26T19:07:37.933Z,100342.66
2023-04-26T19:10:07.181Z,100344.38
2023-04-26T19:12:34.329Z,100350.41
2023-04-26T19:15:02.154Z,100348.66
2023-04-26T19:17:29.774Z,100342.66
2023-04-26T19:19:57.030Z,100350.38
2023-04-26T19:22:24.230Z,100358.13
2023-04-26T19:24:51.423Z,100355.53
2023-04-26T19:27:18.628Z,100349.50
2023-04-26T19:29:46.089Z,100348.63
2023-04-26T19:32:14.575Z,100353.78
2023-04-26T19:34:41.817Z,100355.47
2023-04-26T19:37:08.945Z,100356.34
2023-04-26T19:39:36.109Z,100358.91
2023-04-26T19:42:04.935Z,100346.88
2023-04-26T19:44:32.275Z,100360.63
2023-04-26T19:46:59.631Z,100361.47
2023-04-26T19:49:28.909Z,100358.00
2023-04-26T19:51:56.332Z,100357.16
2023-04-26T19:54:23.814Z,100356.31
2023-04-26T19:56:51.266Z,100352.84
2023-04-26T19:59:18.606Z,100362.31
2023-04-26T20:01:45.761Z,100357.16
2023-04-26T20:04:12.961Z,100351.13
2023-04-26T20:06:40.184Z,100353.69
2023-04-26T20:09:07.539Z,100360.53
2023-04-26T20:11:34.890Z,100364.81
2023-04-26T20:14:02.115Z,100362.25
2023-04-26T20:16:29.330Z,100362.22
2023-04-26T20:18:57.134Z,100358.78
2023-04-26T20:21:24.238Z,100356.22
2023-04-26T20:23:51.351Z,100364.75
2023-04-26T20:26:18.726Z,100368.19
2023-04-26T20:28:46.195Z,100369.03
2023-04-26T20:31:13.340Z,100371.59
2023-04-26T20:33:40.374Z,100369.03
2023-04-26T20:36:07.542Z,100363.84
2023-04-26T20:38:34.852Z,100368.13
2023-04-26T20:41:01.932Z,100367.25
2023-04-26T20:43:29.288Z,100370.66
2023-04-26T20:45:56.330Z,100373.19
2023-04-26T20:48:24.293Z,100377.47
2023-04-26T20:50:54.363Z,100374.91
2023-04-26T20:53:21.492Z,100377.47
2023-04-26T20:55:48.614Z,100380.06
2023-04-26T20:58:15.798Z,100374.88
2023-04-26T21:00:42.916Z,100376.56
2023-04-26T21:03:10.126Z,100372.25
2023-04-26T21:05:37.374Z,100377.41
2023-04-26T21:08:04.532Z,100381.69
2023-04-26T21:10:31.698Z,100381.63
2023-04-26T21:12:58.789Z,100389.38
2023-04-26T21:15:25.940Z,100381.59
2023-04-26T21:17:53.130Z,100382.44
2023-04-26T21:20:20.524Z,100376.44
2023-04-26T21:22:47.817Z,100396.16
2023-04-26T21:25:17.219Z,100396.06
2023-04-26T21:27:44.417Z,100396.06
2023-04-26T21:30:12.232Z,100398.66
2023-04-26T21:32:42.216Z,100397.78
2023-04-26T21:35:11.128Z,100402.03
2023-04-26T21:37:38.307Z,100403.69
2023-04-26T21:40:06.814Z,100402.81
2023-04-26T21:42:34.006Z,100407.09
2023-04-26T21:45:01.589Z,100399.38
2023-04-26T21:47:28.822Z,100401.94
2023-04-26T21:49:56.136Z,100395.94
2023-04-26T21:52:23.282Z,100405.38
2023-04-26T21:54:52.708Z,100413.06
2023-04-26T21:57:24.222Z,100414.78
2023-04-26T21:59:51.697Z,100416.44
2023-04-26T22:02:19.180Z,100420.75
2023-04-26T22:04:46.909Z,100424.13
2023-04-26T22:07:13.970Z,100423.25
2023-04-26T22:09:41.240Z,100421.53
2023-04-26T22:12:08.424Z,100430.13
2023-04-26T22:14:35.607Z,100436.97
2023-04-26T22:17:02.736Z,100433.50
2023-04-26T22:19:29.834Z,100442.06
2023-04-26T22:21:57.114Z,100436.91
2023-04-26T22:24:24.307Z,100436.91
2023-04-26T22:26:51.577Z,100435.19
2023-04-26T22:29:18.638Z,100437.69
2023-04-26T22:31:45.821Z,100437.69
2023-04-26T22:34:12.898Z,100440.22
2023-04-26T22:36:40.149Z,100435.06
2023-04-26T22:39:07.263Z,100433.34
2023-04-26T22:41:34.423Z,100438.53
2023-04-26T22:44:01.491Z,100435.06
2023-04-26T22:46:28.650Z,100438.50
2023-04-26T22:48:55.809Z,100450.47
2023-04-26T22:51:23.027Z,100441.84
2023-04-26T22:53:50.067Z,100439.25
2023-04-26T22:56:17.218Z,100450.41
2023-04-26T22:58:44.281Z,100452.09
2023-04-26T23:01:11.553Z,100451.22
2023-04-26T23:03:38.768Z,100456.34
2023-04-26T23:06:06.539Z,100450.28
2023-04-26T23:08:33.847Z,100452.88
2023-04-26T23:11:01.051Z,100458.00
2023-04-26T23:13:29.774Z,100462.28
2023-04-26T23:15:57.273Z,100462.28
2023-04-26T23:18:26.830Z,100464.00
2023-04-26T23:20:53.924Z,100470.84
2023-04-26T23:23:21.090Z,100471.72
2023-04-26T23:25:48.150Z,100470.81
2023-04-26T23:28:15.425Z,100466.53
2023-04-26T23:30:43.269Z,100465.66
2023-04-26T23:33:10.445Z,100462.16
2023-04-26T23:35:41.960Z,100468.13
2023-04-26T23:38:09.286Z,100465.56
2023-04-26T23:40:37.398Z,100467.28
2023-04-26T23:43:06.367Z,100468.16
2023-04-26T23:45:33.561Z,100467.34
2023-04-26T23:48:01.044Z,100466.41
2023-04-26T23:50:28.425Z,100472.38
2023-04-26T23:52:55.760Z,100467.16
2023-04-26T23:55:24.032Z,100474.84
2023-04-26T23:57:51.179Z,100467.06
